Time;durP1;ratioP1;P1;durP2;ratioP2;P2;SDS_P1;SDS_P2;PMS_P1;PMS_P2;Temp;Humidity;BMP_temperature;BMP_pressure;BME280_temperature;BME280_humidity;BME280_pressure;Samples;Min_cycle;Max_cycle;Signal;HPM_P1;HPM_P2
2024/01/19 00:01:16;;;;;;;34.37;18.43;;;6.60;59.80;;;;;;4966306;28;20219;-60
2024/01/19 00:03:42;;;;;;;25.73;17.13;;;6.60;59.80;;;;;;4968663;28;20187;-59
2024/01/19 00:06:07;;;;;;;24.40;17.23;;;6.60;59.80;;;;;;4963736;28;20585;-60
2024/01/19 00:08:33;;;;;;;26.53;17.20;;;6.60;59.80;;;;;;4967141;28;20622;-58
2024/01/19 00:10:59;;;;;;;25.40;17.87;;;6.60;59.60;;;;;;4964446;28;20248;-59
2024/01/19 00:13:24;;;;;;;31.93;17.80;;;6.60;59.50;;;;;;4968900;28;20191;-59
2024/01/19 00:15:52;;;;;;;28.60;17.67;;;6.60;59.80;;;;;;4960083;28;20207;-59
2024/01/19 00:18:17;;;;;;;25.90;17.07;;;6.60;59.80;;;;;;4967759;28;20187;-57
2024/01/19 00:20:43;;;;;;;32.50;17.60;;;6.70;60.50;;;;;;4962695;28;20485;-60
2024/01/19 00:23:09;;;;;;;27.50;16.50;;;6.70;59.80;;;;;;4959613;28;20190;-59
2024/01/19 00:25:34;;;;;;;21.87;15.60;;;6.70;59.70;;;;;;4968502;28;20690;-59
2024/01/19 00:28:00;;;;;;;28.67;18.40;;;6.60;59.80;;;;;;4967680;28;20671;-60
2024/01/19 00:30:25;;;;;;;27.20;17.60;;;6.70;60.00;;;;;;4968874;28;20199;-58
2024/01/19 00:32:51;;;;;;;29.10;17.57;;;6.60;59.80;;;;;;4963671;28;20218;-60
2024/01/19 00:35:16;;;;;;;29.60;18.07;;;6.70;60.00;;;;;;4966546;28;20600;-59
2024/01/19 00:37:42;;;;;;;31.43;18.83;;;6.70;60.00;;;;;;4963021;28;20237;-58
2024/01/19 00:40:11;;;;;;;19.90;16.00;;;6.70;59.80;;;;;;4968401;28;20587;-59
2024/01/19 00:42:41;;;;;;;28.20;17.67;;;6.70;60.30;;;;;;4997028;28;20241;-60
2024/01/19 00:45:08;;;;;;;24.83;17.13;;;6.70;59.40;;;;;;4966451;28;20508;-60
2024/01/19 00:47:34;;;;;;;29.70;18.13;;;6.70;59.40;;;;;;4963693;28;20463;-60
2024/01/19 00:50:04;;;;;;;26.03;15.43;;;6.70;59.40;;;;;;4967169;28;20520;-59
2024/01/19 00:52:30;;;;;;;28.67;18.17;;;6.60;59.40;;;;;;4964860;28;20449;-57
2024/01/19 00:54:55;;;;;;;33.07;18.83;;;6.70;59.40;;;;;;4965355;28;20452;-59
2024/01/19 00:57:21;;;;;;;26.30;17.97;;;6.70;59.40;;;;;;4960832;28;20207;-59
2024/01/19 00:59:48;;;;;;;29.43;16.60;;;6.70;59.40;;;;;;4966119;28;20587;-59
2024/01/19 01:02:13;;;;;;;28.23;17.37;;;6.70;59.40;;;;;;4973604;28;20221;-59
2024/01/19 01:04:39;;;;;;;26.30;17.20;;;6.70;59.50;;;;;;4960216;28;20864;-58
2024/01/19 01:07:04;;;;;;;25.13;16.57;;;6.70;59.60;;;;;;4961259;28;20243;-59
2024/01/19 01:09:30;;;;;;;30.23;18.47;;;6.70;59.60;;;;;;4960120;28;20183;-58
2024/01/19 01:11:56;;;;;;;22.40;16.30;;;6.70;59.50;;;;;;4959052;28;20191;-58
2024/01/19 01:14:22;;;;;;;26.30;17.60;;;6.70;59.60;;;;;;4960934;28;20203;-57
2024/01/19 01:16:47;;;;;;;25.13;18.37;;;6.70;59.60;;;;;;4958589;28;20474;-58
2024/01/19 01:19:13;;;;;;;26.87;17.97;;;6.70;59.60;;;;;;4960082;28;20193;-59
2024/01/19 01:21:39;;;;;;;28.10;16.83;;;6.70;59.60;;;;;;4960257;28;20191;-58
2024/01/19 01:24:04;;;;;;;31.50;18.70;;;6.70;59.70;;;;;;4961258;28;20180;-59
2024/01/19 01:26:30;;;;;;;28.53;17.43;;;6.70;59.60;;;;;;4959466;28;20196;-57
2024/01/19 01:28:55;;;;;;;27.60;18.10;;;6.80;59.50;;;;;;4960224;28;20198;-59
2024/01/19 01:31:21;;;;;;;25.10;18.03;;;6.80;59.40;;;;;;4959896;28;20183;-59
2024/01/19 01:33:46;;;;;;;23.10;16.70;;;6.70;59.20;;;;;;4961835;28;20191;-58
2024/01/19 01:36:12;;;;;;;30.67;18.30;;;6.70;59.30;;;;;;4960769;28;20207;-60
2024/01/19 01:38:38;;;;;;;28.13;16.93;;;6.50;59.30;;;;;;4966898;28;20808;-58
2024/01/19 01:41:03;;;;;;;25.97;17.47;;;6.50;59.40;;;;;;4986990;28;20307;-58
2024/01/19 01:43:29;;;;;;;25.70;18.10;;;6.40;59.30;;;;;;4964843;28;20663;-59
2024/01/19 01:45:55;;;;;;;26.00;16.60;;;6.40;59.50;;;;;;4959338;28;20235;-58
2024/01/19 01:48:23;;;;;;;29.60;17.07;;;6.30;59.60;;;;;;4961522;28;20451;-58
2024/01/19 01:50:49;;;;;;;25.27;16.80;;;6.30;59.50;;;;;;4962278;28;20716;-58
2024/01/19 01:53:15;;;;;;;23.10;15.87;;;6.30;59.50;;;;;;4979041;23;20443;31
2024/01/19 01:55:41;;;;;;;28.67;17.43;;;6.30;59.40;;;;;;4998210;28;20568;-59
2024/01/19 01:58:08;;;;;;;21.73;15.83;;;6.40;59.10;;;;;;5000576;28;20461;-59
2024/01/19 02:00:36;;;;;;;29.50;17.20;;;6.40;59.20;;;;;;5005212;28;20271;-57
2024/01/19 02:03:02;;;;;;;28.40;18.70;;;6.40;59.40;;;;;;5002395;28;20540;-59
2024/01/19 02:05:27;;;;;;;32.43;16.77;;;6.50;59.40;;;;;;4998213;28;20555;-57
2024/01/19 02:07:53;;;;;;;23.67;16.40;;;6.50;59.10;;;;;;4999263;28;20433;-57
2024/01/19 02:10:19;;;;;;;31.10;18.37;;;6.50;59.10;;;;;;5006718;28;20646;-58
2024/01/19 02:12:44;;;;;;;28.63;16.20;;;6.50;59.00;;;;;;5003251;28;20190;-59
2024/01/19 02:15:20;;;;;;;27.07;17.67;;;6.40;59.30;;;;;;5003035;28;20220;-58
2024/01/19 02:17:47;;;;;;;24.70;17.20;;;6.40;59.40;;;;;;5006582;28;20528;-58
2024/01/19 02:20:12;;;;;;;26.90;17.00;;;6.40;59.50;;;;;;5000845;28;20476;-60
2024/01/19 02:22:39;;;;;;;28.57;17.80;;;6.50;59.40;;;;;;4999773;28;20806;-58
2024/01/19 02:25:05;;;;;;;29.37;19.10;;;6.50;59.40;;;;;;4999161;28;20666;-56
2024/01/19 02:27:32;;;;;;;26.73;17.70;;;6.50;59.30;;;;;;5002072;28;20531;-57
2024/01/19 02:29:58;;;;;;;25.77;17.57;;;6.50;59.40;;;;;;5004579;28;20440;-58
2024/01/19 02:32:24;;;;;;;27.83;16.50;;;6.40;59.40;;;;;;5003599;28;20459;-58
2024/01/19 02:34:49;;;;;;;25.63;16.70;;;6.50;59.40;;;;;;5002535;28;20248;-58
2024/01/19 02:37:15;;;;;;;27.40;17.17;;;6.40;59.40;;;;;;5004405;28;20233;-58
2024/01/19 02:39:41;;;;;;;27.20;17.50;;;6.50;59.20;;;;;;5000659;28;20310;-58
2024/01/19 02:42:08;;;;;;;23.90;16.67;;;6.60;59.10;;;;;;5003930;28;20191;-58
2024/01/19 02:44:33;;;;;;;30.83;18.10;;;6.60;58.90;;;;;;5001330;28;20953;-58
2024/01/19 02:46:59;;;;;;;21.40;15.13;;;6.50;59.40;;;;;;5002591;28;20465;-58
2024/01/19 02:49:24;;;;;;;25.23;16.23;;;6.50;58.80;;;;;;5002256;28;20698;-57
2024/01/19 02:51:50;;;;;;;27.17;15.97;;;6.60;59.30;;;;;;5002486;28;20198;-59
2024/01/19 02:54:15;;;;;;;26.93;18.57;;;6.60;58.60;;;;;;5003929;28;20553;-59
2024/01/19 02:56:41;;;;;;;27.90;16.93;;;6.50;58.60;;;;;;5005563;28;20590;-59
2024/01/19 02:59:08;;;;;;;28.83;17.80;;;6.50;58.60;;;;;;5003759;28;20263;-59
2024/01/19 03:01:33;;;;;;;28.83;17.90;;;6.50;58.60;;;;;;5002409;28;20633;-58
2024/01/19 03:03:59;;;;;;;28.53;16.10;;;6.50;58.60;;;;;;5002516;28;20519;-59
2024/01/19 03:06:25;;;;;;;28.23;19.20;;;6.50;58.50;;;;;;5005196;28;20209;-59
2024/01/19 03:08:50;;;;;;;27.23;17.57;;;6.50;58.50;;;;;;5005259;28;20182;-56
2024/01/19 03:11:16;;;;;;;26.13;16.57;;;6.50;58.70;;;;;;5001035;28;20182;-58
2024/01/19 03:13:42;;;;;;;26.77;16.50;;;6.40;58.70;;;;;;5005469;28;20555;-58
2024/01/19 03:16:07;;;;;;;25.27;18.30;;;6.40;58.90;;;;;;5001416;28;20288;-58
2024/01/19 03:18:33;;;;;;;23.30;16.57;;;6.40;59.00;;;;;;5002702;28;20186;-57
2024/01/19 03:20:58;;;;;;;21.90;16.03;;;6.30;59.00;;;;;;5001257;28;22104;-60
2024/01/19 03:23:24;;;;;;;27.60;15.97;;;6.40;59.10;;;;;;5002146;28;20267;-58
2024/01/19 03:25:51;;;;;;;22.90;16.87;;;6.40;59.00;;;;;;5003718;28;20205;-59
2024/01/19 03:28:16;;;;;;;25.53;18.13;;;6.30;59.20;;;;;;5003266;28;20649;-58
2024/01/19 03:30:42;;;;;;;28.23;17.10;;;6.30;59.40;;;;;;4999501;28;20452;-57
2024/01/19 03:33:07;;;;;;;25.33;16.50;;;6.30;59.60;;;;;;5009272;28;20217;-57
2024/01/19 03:35:33;;;;;;;27.57;17.40;;;6.40;59.70;;;;;;5002830;28;20263;-58
2024/01/19 03:37:58;;;;;;;23.93;15.93;;;6.40;59.60;;;;;;5006765;28;20197;-58
2024/01/19 03:40:24;;;;;;;24.80;16.93;;;6.40;59.40;;;;;;5005786;28;20221;-58
2024/01/19 03:42:49;;;;;;;23.53;16.40;;;6.50;59.40;;;;;;5003591;28;20287;-58
2024/01/19 03:45:15;;;;;;;28.73;16.30;;;6.40;59.20;;;;;;5007515;28;20207;-59
2024/01/19 03:47:42;;;;;;;27.03;18.60;;;6.50;59.40;;;;;;5006859;28;20279;-58
2024/01/19 03:50:08;;;;;;;24.83;15.57;;;6.50;59.30;;;;;;5005835;28;20969;-58
2024/01/19 03:52:34;;;;;;;25.70;17.77;;;6.50;59.40;;;;;;5004185;28;20818;-59
2024/01/19 03:55:00;;;;;;;25.00;17.30;;;6.50;59.40;;;;;;5005415;28;20614;-59
2024/01/19 03:57:26;;;;;;;24.03;16.80;;;6.50;59.40;;;;;;5005881;28;20556;-58
2024/01/19 03:59:52;;;;;;;24.57;15.43;;;6.50;59.40;;;;;;5003696;28;20558;-59
2024/01/19 04:02:17;;;;;;;28.67;16.87;;;6.50;59.40;;;;;;5004548;28;20178;-57
2024/01/19 04:04:43;;;;;;;25.20;16.30;;;6.50;59.40;;;;;;5007059;28;20265;-57
2024/01/19 04:07:09;;;;;;;23.93;16.23;;;6.50;59.40;;;;;;5006255;28;20214;-59
2024/01/19 04:09:34;;;;;;;27.77;18.10;;;6.50;59.40;;;;;;5009704;28;20494;-59
2024/01/19 04:12:15;;;;;;;25.53;16.90;;;6.50;59.40;;;;;;5004993;28;20200;-59
2024/01/19 04:14:42;;;;;;;24.90;15.40;;;6.40;60.00;;;;;;5007618;28;20637;-59
2024/01/19 04:17:08;;;;;;;30.87;17.30;;;6.40;59.40;;;;;;5002173;28;20559;-57
2024/01/19 04:19:34;;;;;;;34.97;17.00;;;6.40;59.30;;;;;;5004429;28;20469;-58
2024/01/19 04:22:00;;;;;;;30.17;17.30;;;6.40;59.30;;;;;;5003803;28;20425;-59
2024/01/19 04:24:25;;;;;;;26.50;17.60;;;6.40;59.40;;;;;;5001720;28;20523;-60
2024/01/19 04:26:51;;;;;;;25.33;16.80;;;6.50;59.30;;;;;;5006208;28;20340;-57
2024/01/19 04:29:17;;;;;;;23.07;16.37;;;6.40;59.20;;;;;;5003073;28;20175;-56
2024/01/19 04:31:42;;;;;;;28.37;17.73;;;6.40;59.20;;;;;;5003494;28;20205;-58
2024/01/19 04:34:08;;;;;;;22.03;16.20;;;6.40;59.30;;;;;;5001250;28;20322;-58
2024/01/19 04:36:33;;;;;;;25.20;17.10;;;6.50;59.30;;;;;;5009387;28;20692;-59
2024/01/19 04:38:59;;;;;;;22.00;16.27;;;6.50;59.10;;;;;;5003057;28;20198;-58
2024/01/19 04:41:24;;;;;;;24.90;16.50;;;6.40;59.20;;;;;;5000987;28;20214;-58
2024/01/19 04:43:50;;;;;;;25.60;16.60;;;6.40;59.30;;;;;;5002513;28;20190;-58
2024/01/19 04:46:15;;;;;;;23.83;15.03;;;6.40;59.30;;;;;;5001855;28;20209;-58
2024/01/19 04:48:41;;;;;;;27.13;17.63;;;6.40;60.00;;;;;;5002809;28;20190;-57
2024/01/19 04:51:06;;;;;;;23.30;16.50;;;6.40;59.50;;;;;;5006047;28;20249;-58
2024/01/19 04:53:32;;;;;;;25.90;17.20;;;6.40;59.50;;;;;;5008911;28;20182;-57
2024/01/19 04:55:58;;;;;;;28.10;17.10;;;6.40;59.50;;;;;;5003014;28;20221;-59
2024/01/19 04:58:23;;;;;;;26.30;17.97;;;6.30;59.50;;;;;;5003847;28;20199;-58
2024/01/19 05:00:49;;;;;;;27.07;17.37;;;6.30;59.40;;;;;;5003124;28;20229;-56
2024/01/19 05:03:15;;;;;;;24.20;17.03;;;6.30;59.40;;;;;;5005057;28;20210;-59
2024/01/19 05:05:41;;;;;;;27.87;18.00;;;6.40;59.40;;;;;;5001457;28;20690;-56
2024/01/19 05:08:06;;;;;;;26.30;17.10;;;6.40;59.40;;;;;;5005584;28;20460;-58
2024/01/19 05:10:34;;;;;;;29.17;17.67;;;6.30;59.30;;;;;;5005374;28;20220;-59
2024/01/19 05:12:59;;;;;;;25.97;18.10;;;6.30;59.40;;;;;;5006224;28;20197;-58
2024/01/19 05:15:25;;;;;;;24.93;17.30;;;6.30;59.40;;;;;;5005498;28;20429;-57
2024/01/19 05:17:50;;;;;;;25.27;17.63;;;6.30;59.40;;;;;;5005454;28;20186;-59
2024/01/19 05:20:18;;;;;;;28.10;19.30;;;6.30;59.40;;;;;;5000897;28;20224;-59
2024/01/19 05:22:43;;;;;;;23.10;17.00;;;6.30;59.50;;;;;;5007462;28;20206;-57
2024/01/19 05:25:09;;;;;;;24.03;17.23;;;6.30;59.50;;;;;;5005370;28;21105;-56
2024/01/19 05:27:35;;;;;;;26.60;16.60;;;6.30;59.50;;;;;;5001191;28;20546;-59
2024/01/19 05:30:01;;;;;;;25.37;17.10;;;6.30;59.40;;;;;;5005774;28;20288;-60
2024/01/19 05:32:26;;;;;;;24.10;14.80;;;6.30;59.40;;;;;;5007100;28;20659;-58
2024/01/19 05:34:52;;;;;;;24.87;16.77;;;6.30;59.50;;;;;;5002081;28;20692;-58
2024/01/19 05:37:17;;;;;;;27.03;18.93;;;6.30;59.60;;;;;;5003678;28;20620;-58
2024/01/19 05:39:43;;;;;;;23.83;15.77;;;6.30;59.50;;;;;;5005870;28;20241;-59
2024/01/19 05:42:09;;;;;;;24.37;16.80;;;6.20;59.40;;;;;;5006197;28;20186;-59
2024/01/19 05:44:34;;;;;;;26.10;16.63;;;6.20;59.50;;;;;;5005716;28;20455;-58
2024/01/19 05:47:00;;;;;;;21.60;15.90;;;6.30;59.70;;;;;;5003870;28;20210;-57
2024/01/19 05:49:25;;;;;;;28.40;15.30;;;6.30;59.60;;;;;;5004236;28;20630;-58
2024/01/19 05:51:51;;;;;;;26.33;20.47;;;6.30;59.60;;;;;;5006296;28;20196;-58
2024/01/19 05:54:18;;;;;;;26.70;20.77;;;6.20;59.50;;;;;;5003443;28;20673;-60
2024/01/19 05:56:43;;;;;;;23.17;17.20;;;6.30;59.70;;;;;;5005060;28;20276;-59
2024/01/19 05:59:09;;;;;;;21.07;16.00;;;6.30;59.50;;;;;;5005905;28;20976;-60
2024/01/19 06:01:35;;;;;;;23.30;16.30;;;6.30;59.90;;;;;;5007441;28;20696;-60
2024/01/19 06:04:01;;;;;;;23.73;15.67;;;6.30;59.50;;;;;;5005946;28;20264;-59
2024/01/19 06:06:26;;;;;;;25.73;15.93;;;6.40;59.60;;;;;;4997413;28;20761;-58
2024/01/19 06:08:52;;;;;;;20.50;14.53;;;6.40;59.40;;;;;;5001765;28;20508;-58
2024/01/19 06:11:17;;;;;;;20.73;16.13;;;6.40;59.30;;;;;;5002188;28;20197;-59
2024/01/19 06:13:45;;;;;;;19.60;14.10;;;6.40;59.30;;;;;;5003268;28;20642;-59
2024/01/19 06:16:11;;;;;;;27.10;14.70;;;6.40;59.30;;;;;;5002243;28;20291;-60
2024/01/19 06:18:36;;;;;;;20.13;14.80;;;6.40;59.30;;;;;;4999441;28;20572;-57
2024/01/19 06:21:02;;;;;;;21.87;15.07;;;6.40;59.40;;;;;;5002723;28;20218;-60
2024/01/19 06:23:27;;;;;;;26.10;16.20;;;6.50;59.70;;;;;;5004700;28;20564;-61
2024/01/19 06:25:53;;;;;;;26.20;15.30;;;6.80;59.50;;;;;;5001574;28;20297;-60
2024/01/19 06:28:18;;;;;;;24.30;14.57;;;7.00;59.30;;;;;;4998116;28;20190;-60
2024/01/19 06:30:45;;;;;;;21.10;14.10;;;7.10;58.80;;;;;;5004453;28;20205;-60
2024/01/19 06:33:11;;;;;;;18.80;14.10;;;7.20;58.00;;;;;;5008061;28;20196;-58
2024/01/19 06:35:36;;;;;;;22.37;15.60;;;7.20;57.60;;;;;;5006733;28;20801;-58
2024/01/19 06:38:04;;;;;;;20.50;15.07;;;7.10;57.10;;;;;;5001396;28;20469;-59
2024/01/19 06:40:29;;;;;;;24.90;14.80;;;7.00;57.10;;;;;;5000947;28;20217;-59
2024/01/19 06:42:55;;;;;;;22.80;15.50;;;7.00;57.30;;;;;;5008233;28;20425;-58
2024/01/19 06:45:21;;;;;;;22.37;15.87;;;6.90;57.50;;;;;;5003888;28;20190;-58
2024/01/19 06:47:46;;;;;;;25.20;14.80;;;6.80;57.80;;;;;;5002439;28;20198;-60
2024/01/19 06:50:12;;;;;;;21.70;14.40;;;6.70;58.10;;;;;;5002451;28;20213;-59
2024/01/19 06:52:37;;;;;;;20.70;13.63;;;6.70;58.20;;;;;;5005718;28;20215;-60
2024/01/19 06:55:04;;;;;;;20.80;12.83;;;6.70;58.00;;;;;;5003611;28;20593;-59
2024/01/19 06:57:30;;;;;;;20.27;13.10;;;6.70;57.90;;;;;;5006799;28;20739;-59
2024/01/19 06:59:55;;;;;;;21.63;13.27;;;6.70;58.00;;;;;;5001870;28;20472;-60
2024/01/19 07:02:21;;;;;;;20.30;13.80;;;6.70;58.00;;;;;;5007637;28;20200;-58
2024/01/19 07:04:48;;;;;;;20.53;14.07;;;6.50;57.90;;;;;;5006337;28;20182;-58
2024/01/19 07:07:13;;;;;;;20.00;14.30;;;6.50;58.20;;;;;;5006205;28;20237;-59
2024/01/19 07:09:39;;;;;;;21.53;13.00;;;6.60;58.10;;;;;;5009064;28;20448;-60
2024/01/19 07:12:05;;;;;;;19.90;12.53;;;6.60;57.90;;;;;;5003798;28;20187;-59
2024/01/19 07:14:30;;;;;;;18.50;13.77;;;6.60;57.90;;;;;;5011516;28;20564;-60
2024/01/19 07:16:56;;;;;;;15.10;11.70;;;6.60;57.80;;;;;;5007910;28;20445;-58
2024/01/19 07:19:22;;;;;;;22.00;13.67;;;6.60;58.30;;;;;;5006356;28;20767;-59
2024/01/19 07:21:47;;;;;;;22.77;12.77;;;6.50;58.40;;;;;;5011433;28;20681;-58
2024/01/19 07:24:13;;;;;;;20.23;13.80;;;6.50;58.30;;;;;;5007581;28;20208;-57
2024/01/19 07:26:39;;;;;;;16.40;11.80;;;6.60;58.30;;;;;;5009122;28;20205;-60
2024/01/19 07:29:09;;;;;;;18.97;11.80;;;6.50;58.20;;;;;;5009090;28;20611;-59
2024/01/19 07:31:35;;;;;;;19.70;11.73;;;6.50;58.30;;;;;;5008081;28;20178;-59
2024/01/19 07:34:01;;;;;;;16.30;11.30;;;6.50;58.40;;;;;;5012189;28;20445;-59
2024/01/19 07:36:26;;;;;;;14.40;10.90;;;6.50;58.40;;;;;;5008613;28;20865;-59
2024/01/19 07:38:52;;;;;;;18.97;12.10;;;6.30;58.80;;;;;;5010068;28;20186;-59
2024/01/19 07:41:18;;;;;;;21.30;12.57;;;6.30;59.10;;;;;;5010420;28;20359;-58
2024/01/19 07:43:44;;;;;;;16.60;11.23;;;6.20;59.00;;;;;;5012001;28;20220;-60
2024/01/19 07:46:11;;;;;;;19.60;11.40;;;6.30;58.90;;;;;;5011074;28;20206;-59
2024/01/19 07:48:37;;;;;;;20.77;10.53;;;6.30;58.90;;;;;;5008252;28;20190;-58
2024/01/19 07:51:03;;;;;;;20.67;12.27;;;6.30;58.60;;;;;;5003931;28;20487;-59
2024/01/19 07:53:28;;;;;;;16.30;11.20;;;6.30;58.90;;;;;;5022979;22;20473;-58
2024/01/19 07:55:54;;;;;;;18.90;11.20;;;6.30;58.90;;;;;;5043254;28;20921;-59
2024/01/19 07:58:20;;;;;;;16.90;12.00;;;6.30;58.70;;;;;;5046675;28;20237;-58
2024/01/19 08:00:45;;;;;;;15.13;11.40;;;6.30;58.70;;;;;;5040115;28;20756;-58
2024/01/19 08:03:11;;;;;;;18.23;13.03;;;6.30;58.70;;;;;;5046119;28;20196;-58
2024/01/19 08:05:37;;;;;;;19.23;13.20;;;6.30;58.90;;;;;;5039691;28;20305;-59
2024/01/19 08:08:02;;;;;;;20.00;12.27;;;6.30;59.00;;;;;;5046353;28;20193;-59
2024/01/19 08:10:31;;;;;;;18.03;12.23;;;6.20;58.80;;;;;;5047015;28;20188;-60
2024/01/19 08:12:58;;;;;;;15.40;11.73;;;6.30;58.90;;;;;;5037685;28;20192;-60
2024/01/19 08:15:23;;;;;;;23.27;14.03;;;6.30;58.90;;;;;;5046119;28;20458;-59
2024/01/19 08:17:49;;;;;;;19.83;13.57;;;6.20;58.90;;;;;;5047793;28;21115;-59
2024/01/19 08:20:14;;;;;;;19.07;13.40;;;6.30;58.90;;;;;;5046665;28;20212;-59
2024/01/19 08:22:40;;;;;;;16.70;12.43;;;6.30;58.60;;;;;;5045344;28;20592;-60
2024/01/19 08:25:06;;;;;;;18.30;12.23;;;6.40;58.70;;;;;;5043022;28;20180;-59
2024/01/19 08:27:31;;;;;;;16.50;12.00;;;6.40;58.70;;;;;;5044741;28;20261;-59
2024/01/19 08:29:57;;;;;;;15.83;9.70;;;6.40;58.70;;;;;;5048930;28;20487;-60
2024/01/19 08:32:26;;;;;;;16.00;10.90;;;6.50;58.80;;;;;;5037242;28;20184;-60
2024/01/19 08:34:52;;;;;;;14.57;11.77;;;6.60;58.70;;;;;;5047336;28;20693;-58
2024/01/19 08:37:17;;;;;;;19.03;11.17;;;6.60;58.50;;;;;;5044413;28;20515;-58
2024/01/19 08:39:45;;;;;;;13.70;10.67;;;6.70;58.30;;;;;;5041563;28;20241;-60
2024/01/19 08:42:11;;;;;;;20.87;11.70;;;6.70;58.00;;;;;;5043161;28;20275;-60
2024/01/19 08:44:37;;;;;;;19.43;11.40;;;6.70;57.90;;;;;;5042399;28;20624;-60
2024/01/19 08:47:02;;;;;;;16.60;11.30;;;6.70;57.90;;;;;;5045858;28;20283;-59
2024/01/19 08:49:29;;;;;;;16.00;12.13;;;6.70;57.80;;;;;;5044032;28;20192;-59
2024/01/19 08:51:55;;;;;;;20.47;12.23;;;6.70;57.80;;;;;;5047726;28;20602;-60
2024/01/19 08:54:20;;;;;;;15.00;10.83;;;6.70;57.80;;;;;;5048177;28;20458;-60
2024/01/19 08:56:46;;;;;;;21.90;11.87;;;6.70;57.80;;;;;;5042498;28;20212;-60
2024/01/19 08:59:15;;;;;;;14.50;11.43;;;6.20;57.30;;;;;;5043842;28;20192;-60
2024/01/19 09:01:41;;;;;;;17.30;10.77;;;6.20;58.70;;;;;;5046621;28;20220;-60
2024/01/19 09:04:06;;;;;;;16.87;11.07;;;6.30;58.90;;;;;;5047386;28;20436;-57
2024/01/19 09:06:32;;;;;;;19.37;12.40;;;6.20;58.50;;;;;;5037569;28;20339;-59
2024/01/19 09:09:01;;;;;;;15.73;10.70;;;6.40;58.30;;;;;;5043670;28;20192;-61
2024/01/19 09:11:27;;;;;;;20.67;13.20;;;6.50;58.00;;;;;;5036747;28;20177;-59
2024/01/19 09:13:52;;;;;;;18.77;12.73;;;6.50;58.00;;;;;;5044975;28;20436;-58
2024/01/19 09:16:18;;;;;;;14.80;11.70;;;6.50;57.90;;;;;;5040288;28;20758;-60
2024/01/19 09:18:44;;;;;;;14.73;10.13;;;6.60;58.20;;;;;;5047300;28;20187;-60
2024/01/19 09:21:16;;;;;;;18.63;11.90;;;6.60;58.00;;;;;;5045015;28;20490;-61
2024/01/19 09:23:42;;;;;;;18.10;10.90;;;6.60;57.90;;;;;;5045639;28;20176;-60
2024/01/19 09:26:07;;;;;;;14.10;11.30;;;6.70;57.80;;;;;;5039402;28;21004;-62
2024/01/19 09:28:33;;;;;;;17.40;11.70;;;6.70;58.00;;;;;;5045159;28;20196;-59
2024/01/19 09:31:00;;;;;;;21.97;13.20;;;6.70;57.90;;;;;;5044779;28;20196;-59
2024/01/19 09:33:25;;;;;;;16.77;11.80;;;6.80;57.50;;;;;;5042269;28;20208;-60
2024/01/19 09:35:51;;;;;;;17.47;12.40;;;6.80;57.30;;;;;;5042232;28;20490;-59
2024/01/19 09:38:16;;;;;;;22.20;12.63;;;6.80;57.20;;;;;;5045055;28;20188;-60
2024/01/19 09:40:45;;;;;;;17.50;12.20;;;6.90;57.40;;;;;;5043350;28;20262;-59
2024/01/19 09:43:12;;;;;;;23.00;11.90;;;6.90;57.30;;;;;;5044775;28;20193;-58
2024/01/19 09:45:41;;;;;;;15.93;10.70;;;7.00;57.30;;;;;;5041203;28;21088;-59
2024/01/19 09:48:21;;;;;;;18.70;11.97;;;7.00;57.20;;;;;;5043987;28;20447;-60
2024/01/19 09:50:49;;;;;;;20.93;12.20;;;7.10;57.20;;;;;;5048265;28;20522;-59
2024/01/19 09:53:32;;;;;;;19.47;12.00;;;7.10;57.20;;;;;;5047410;28;20447;-59
2024/01/19 09:55:59;;;;;;;15.37;10.77;;;7.10;57.40;;;;;;5046601;28;20467;-58
2024/01/19 09:58:26;;;;;;;13.60;10.47;;;7.10;57.70;;;;;;5041317;28;21028;-59
2024/01/19 10:00:52;;;;;;;14.97;10.87;;;7.10;57.40;;;;;;5037459;28;20621;-59
2024/01/19 10:03:18;;;;;;;20.07;12.20;;;7.10;57.00;;;;;;5039041;28;21133;-58
2024/01/19 10:05:44;;;;;;;22.87;11.80;;;7.20;57.10;;;;;;5043602;28;20459;-59
2024/01/19 10:08:12;;;;;;;20.60;12.80;;;7.30;57.10;;;;;;5042385;28;21267;-58
2024/01/19 10:10:42;;;;;;;16.23;11.93;;;7.40;57.20;;;;;;5042085;28;20266;-58
2024/01/19 10:13:08;;;;;;;16.93;12.90;;;7.40;56.80;;;;;;5042590;28;21573;-58
2024/01/19 10:15:34;;;;;;;17.07;11.87;;;7.40;56.40;;;;;;5039725;28;20459;-57
2024/01/19 10:18:00;;;;;;;20.57;13.57;;;7.40;56.50;;;;;;5033789;28;21255;-58
2024/01/19 10:20:26;;;;;;;16.17;11.23;;;7.40;56.30;;;;;;5035312;28;20221;-58
2024/01/19 10:22:51;;;;;;;17.37;12.80;;;7.40;56.20;;;;;;5035232;28;20447;-59
2024/01/19 10:25:18;;;;;;;17.20;12.33;;;7.50;56.30;;;;;;5038817;28;20188;-60
2024/01/19 10:27:46;;;;;;;20.03;11.10;;;7.60;56.10;;;;;;5040969;28;20733;-59
2024/01/19 10:30:14;;;;;;;17.90;12.23;;;7.80;56.20;;;;;;5040841;28;20466;-61
2024/01/19 10:32:41;;;;;;;19.00;13.27;;;7.80;56.20;;;;;;5042706;28;20438;-59
2024/01/19 10:35:25;;;;;;;16.80;11.67;;;7.90;55.50;;;;;;5044786;28;20451;-61
2024/01/19 10:37:50;;;;;;;17.73;12.20;;;7.90;56.30;;;;;;5040772;28;20506;-60
2024/01/19 10:40:21;;;;;;;20.60;13.37;;;8.10;56.00;;;;;;5042969;28;20569;-61
2024/01/19 10:42:56;;;;;;;16.47;12.87;;;8.20;55.70;;;;;;5035327;28;20185;-60
2024/01/19 10:45:30;;;;;;;19.27;12.57;;;8.40;55.10;;;;;;5042130;28;20771;-61
2024/01/19 10:48:03;;;;;;;14.90;12.70;;;8.40;54.50;;;;;;5041159;28;20443;-60
2024/01/19 10:50:29;;;;;;;15.97;13.00;;;8.50;54.60;;;;;;5044094;28;20439;-59
2024/01/19 10:52:57;;;;;;;20.10;12.10;;;8.50;54.20;;;;;;5046361;28;20505;-60
2024/01/19 10:55:25;;;;;;;14.63;11.33;;;8.50;54.40;;;;;;5041140;28;20462;-60
2024/01/19 10:57:55;;;;;;;23.47;13.00;;;8.60;54.50;;;;;;5042386;28;20438;-61
2024/01/19 11:00:23;;;;;;;15.13;12.33;;;8.70;54.50;;;;;;5044647;28;20931;-60
2024/01/19 11:03:00;;;;;;;18.93;13.07;;;8.80;54.70;;;;;;5041391;28;20842;-60
2024/01/19 11:05:26;;;;;;;17.23;13.50;;;9.00;54.80;;;;;;5044339;28;20454;-60
2024/01/19 11:07:59;;;;;;;16.80;12.73;;;8.90;53.60;;;;;;5041502;28;20432;-60
2024/01/19 11:10:30;;;;;;;19.00;12.83;;;9.10;54.10;;;;;;5045832;28;20526;-60
2024/01/19 11:12:59;;;;;;;19.43;13.20;;;9.10;53.70;;;;;;5044031;28;20439;-60
2024/01/19 11:15:38;;;;;;;15.23;12.57;;;9.20;53.50;;;;;;5042733;28;20419;-61
2024/01/19 11:18:05;;;;;;;15.53;13.00;;;9.20;53.70;;;;;;5044513;28;20849;-59
2024/01/19 11:20:33;;;;;;;20.27;12.23;;;9.20;53.40;;;;;;5046108;28;20613;-60
2024/01/19 11:23:00;;;;;;;20.93;13.97;;;9.20;53.00;;;;;;5044455;28;20447;-61
2024/01/19 11:25:38;;;;;;;19.27;13.30;;;9.10;52.70;;;;;;5042480;28;20462;-60
2024/01/19 11:28:41;;;;;;;18.33;13.20;;;9.20;53.00;;;;;;5035792;28;20534;-61
2024/01/19 11:31:16;;;;;;;25.73;13.10;;;9.40;52.40;;;;;;5043481;28;20523;-61
2024/01/19 11:33:42;;;;;;;18.03;12.43;;;9.50;51.50;;;;;;5035212;28;20965;-61
2024/01/19 11:36:08;;;;;;;20.57;13.97;;;9.50;52.00;;;;;;5039363;28;21242;-60
2024/01/19 11:38:36;;;;;;;16.53;12.87;;;9.60;51.90;;;;;;5039274;28;20834;-61
2024/01/19 11:41:03;;;;;;;20.47;15.03;;;9.50;52.30;;;;;;5042488;28;20471;-61
2024/01/19 11:43:39;;;;;;;17.37;14.07;;;9.50;52.30;;;;;;5041228;28;20439;-60
2024/01/19 11:46:05;;;;;;;20.77;16.50;;;9.60;52.70;;;;;;5039595;28;20448;-60
2024/01/19 11:48:44;;;;;;;19.10;14.97;;;9.80;53.00;;;;;;5043256;28;20990;-61
2024/01/19 11:51:33;;;;;;;30.20;14.07;;;9.90;53.20;;;;;;5042388;28;20472;-61
2024/01/19 11:54:03;;;;;;;21.53;13.43;;;9.90;51.40;;;;;;5043196;28;20488;-61
2024/01/19 11:56:30;;;;;;;14.00;11.97;;;10.00;50.70;;;;;;5045664;28;20538;-61
2024/01/19 11:58:55;;;;;;;17.47;13.53;;;10.00;50.70;;;;;;5042926;28;20464;-60
2024/01/19 12:01:22;;;;;;;16.67;13.37;;;9.90;51.00;;;;;;5047416;28;20958;-61
2024/01/19 12:03:53;;;;;;;17.07;13.27;;;9.90;52.10;;;;;;5048316;28;20659;-60
2024/01/19 12:06:19;;;;;;;17.30;13.43;;;9.90;51.10;;;;;;5048124;28;20982;-60
2024/01/19 12:08:59;;;;;;;16.80;12.83;;;10.10;50.20;;;;;;5045601;28;20504;-60
2024/01/19 12:11:24;;;;;;;18.37;13.00;;;10.10;50.50;;;;;;5043184;28;20423;-59
2024/01/19 12:13:50;;;;;;;19.30;14.13;;;10.10;50.50;;;;;;5048690;28;20456;-60
2024/01/19 12:16:20;;;;;;;21.50;13.80;;;9.90;52.70;;;;;;5036749;28;20323;-60
2024/01/19 12:18:45;;;;;;;16.73;12.50;;;10.00;50.80;;;;;;5048475;28;20193;-60
2024/01/19 12:21:11;;;;;;;17.43;12.67;;;10.10;50.60;;;;;;5041512;28;20822;-60
2024/01/19 12:23:39;;;;;;;17.30;13.27;;;10.20;50.40;;;;;;5050268;28;20193;-60
2024/01/19 12:26:05;;;;;;;16.90;14.00;;;10.30;50.60;;;;;;5039472;28;20571;-61
2024/01/19 12:28:34;;;;;;;16.50;12.87;;;10.50;49.90;;;;;;5045061;28;20454;-59
2024/01/19 12:30:59;;;;;;;15.97;12.60;;;10.50;49.70;;;;;;5046833;28;20195;-61
2024/01/19 12:33:28;;;;;;;12.97;11.57;;;10.50;49.90;;;;;;5037968;28;20514;-60